Time;durP1;ratioP1;P1;durP2;ratioP2;P2;SDS_P1;SDS_P2;PMS_P1;PMS_P2;Temp;Humidity;BMP_temperature;BMP_pressure;BME280_temperature;BME280_humidity;BME280_pressure;Samples;Min_cycle;Max_cycle;Signal;HPM_P1;HPM_P2
2021/10/03 00:01:35;;;;;;;2.72;2.25;;;18.80;52.30;;;;;;5003460;28;20652;-48
2021/10/03 00:04:05;;;;;;;4.35;2.65;;;18.90;52.40;;;;;;4994591;28;20252;-41
2021/10/03 00:06:38;;;;;;;2.90;2.17;;;18.90;52.40;;;;;;5009438;28;20244;-49
2021/10/03 00:09:08;;;;;;;5.07;2.25;;;19.00;52.40;;;;;;5011771;28;20319;-50
2021/10/03 00:11:39;;;;;;;3.60;2.63;;;19.00;52.40;;;;;;5012718;28;20259;-45
2021/10/03 00:14:12;;;;;;;3.70;2.33;;;19.00;52.40;;;;;;5012662;28;20252;-51
2021/10/03 00:16:42;;;;;;;4.90;2.30;;;19.10;52.40;;;;;;5013946;28;20819;-50
2021/10/03 00:19:13;;;;;;;3.90;2.42;;;19.10;52.40;;;;;;5011917;28;20249;-52
2021/10/03 00:21:45;;;;;;;3.85;2.60;;;19.20;52.30;;;;;;5010676;28;20578;-43
2021/10/03 00:24:15;;;;;;;3.97;2.30;;;19.20;52.90;;;;;;5009957;28;20629;-57
2021/10/03 00:26:46;;;;;;;6.65;3.15;;;19.20;52.20;;;;;;5013014;28;20303;-59
2021/10/03 00:29:16;;;;;;;7.95;2.78;;;19.20;52.40;;;;;;5013350;28;20315;-46
2021/10/03 00:31:47;;;;;;;6.70;2.63;;;19.30;52.70;;;;;;5011149;28;20572;-54
2021/10/03 00:34:17;;;;;;;11.27;2.30;;;19.20;52.60;;;;;;5010838;28;20629;-53
2021/10/03 00:36:49;;;;;;;6.68;2.08;;;19.20;52.70;;;;;;5011837;28;20695;-49
2021/10/03 00:39:20;;;;;;;4.57;2.25;;;19.30;52.90;;;;;;5011459;28;20655;-53
2021/10/03 00:41:50;;;;;;;6.22;2.35;;;19.30;52.90;;;;;;5011909;28;20309;-51
2021/10/03 00:44:21;;;;;;;4.78;2.47;;;19.30;52.90;;;;;;5012652;28;20236;-51
2021/10/03 00:46:51;;;;;;;6.13;2.30;;;19.30;53.00;;;;;;5010059;28;20293;-54
2021/10/03 00:49:22;;;;;;;3.58;1.73;;;19.40;53.00;;;;;;5010321;28;20638;-47
2021/10/03 00:51:54;;;;;;;3.72;2.00;;;19.40;53.00;;;;;;5011572;28;20267;-49
2021/10/03 00:54:24;;;;;;;4.93;2.20;;;19.40;53.00;;;;;;5009165;28;20236;-42
2021/10/03 00:56:55;;;;;;;3.92;1.92;;;19.50;53.00;;;;;;5004306;28;20236;-53
2021/10/03 00:59:27;;;;;;;4.43;2.05;;;19.50;52.90;;;;;;5009269;28;20575;-51
2021/10/03 01:01:57;;;;;;;5.28;2.03;;;19.50;52.90;;;;;;5012010;28;20287;-49
2021/10/03 01:04:27;;;;;;;5.20;2.00;;;19.50;52.70;;;;;;5010693;28;20232;-52
2021/10/03 01:07:00;;;;;;;4.03;1.90;;;19.60;52.70;;;;;;5010901;28;20340;-53
2021/10/03 01:09:30;;;;;;;5.50;2.35;;;19.60;52.60;;;;;;5010282;28;20324;-46
2021/10/03 01:12:01;;;;;;;4.40;1.83;;;19.60;52.60;;;;;;5009431;28;20267;-48
2021/10/03 01:14:31;;;;;;;4.55;2.00;;;19.70;52.50;;;;;;5009552;28;20236;-52
2021/10/03 01:17:02;;;;;;;4.25;1.85;;;19.70;52.50;;;;;;5004305;28;20288;-43
2021/10/03 01:19:33;;;;;;;3.63;1.98;;;19.70;52.40;;;;;;5006903;28;20244;-49
2021/10/03 01:22:05;;;;;;;4.22;1.65;;;19.80;52.40;;;;;;5011754;28;20199;-47
2021/10/03 01:24:36;;;;;;;4.32;1.75;;;19.80;52.30;;;;;;5012237;28;20369;-49
2021/10/03 01:27:06;;;;;;;3.10;1.90;;;19.80;52.30;;;;;;4998188;28;20239;-50
2021/10/03 01:29:37;;;;;;;2.95;1.70;;;19.80;52.20;;;;;;5008996;28;20412;-51
2021/10/03 01:32:08;;;;;;;4.20;2.00;;;19.90;52.30;;;;;;5010993;28;20494;-51
2021/10/03 01:34:38;;;;;;;2.92;1.65;;;19.90;52.20;;;;;;5011427;28;20279;-53
2021/10/03 01:37:11;;;;;;;3.25;1.75;;;20.00;52.20;;;;;;4995867;28;20237;-52
2021/10/03 01:39:41;;;;;;;3.33;1.70;;;20.00;52.10;;;;;;4992088;28;20661;-45
2021/10/03 01:42:12;;;;;;;4.38;2.00;;;20.00;52.10;;;;;;4992193;28;20256;-49
2021/10/03 01:44:42;;;;;;;2.17;1.42;;;20.00;52.00;;;;;;5007176;28;20232;-47
2021/10/03 01:47:13;;;;;;;3.20;2.20;;;20.10;52.00;;;;;;5010847;28;20229;-55
2021/10/03 01:49:43;;;;;;;5.68;2.38;;;20.10;52.00;;;;;;5010230;28;20260;-51
2021/10/03 01:52:15;;;;;;;2.10;1.65;;;20.20;52.00;;;;;;5010882;28;20626;-50
2021/10/03 01:54:46;;;;;;;2.90;1.80;;;20.20;51.90;;;;;;5009491;28;20271;-44
2021/10/03 01:57:16;;;;;;;4.65;1.90;;;20.20;51.80;;;;;;5008428;28;20228;-50
2021/10/03 01:59:46;;;;;;;4.38;1.95;;;20.20;51.70;;;;;;5011054;28;20308;-45
2021/10/03 02:02:17;;;;;;;2.88;1.63;;;20.20;51.70;;;;;;5007116;28;20296;-47
2021/10/03 02:04:47;;;;;;;4.18;2.05;;;20.20;51.70;;;;;;5011002;28;20284;-45
2021/10/03 02:07:20;;;;;;;2.72;1.65;;;20.20;51.70;;;;;;5008666;28;20284;-42
2021/10/03 02:09:51;;;;;;;3.53;1.95;;;20.30;51.80;;;;;;5011067;28;20307;-46
2021/10/03 02:12:21;;;;;;;3.53;1.90;;;20.30;51.70;;;;;;5009017;28;20233;-45
2021/10/03 02:14:51;;;;;;;4.68;2.00;;;20.40;51.80;;;;;;5011249;28;20292;-48
2021/10/03 02:17:22;;;;;;;3.30;1.58;;;20.30;51.70;;;;;;5006953;28;20286;-52
2021/10/03 02:19:52;;;;;;;3.97;2.15;;;20.40;51.70;;;;;;5008450;28;20263;-52
2021/10/03 02:22:25;;;;;;;2.92;1.80;;;20.40;51.60;;;;;;5010881;28;20192;-50
2021/10/03 02:24:58;;;;;;;3.35;1.92;;;20.50;51.60;;;;;;5006682;28;20300;-54
2021/10/03 02:27:28;;;;;;;3.97;2.28;;;20.50;51.60;;;;;;5009567;28;20224;-44
2021/10/03 02:29:59;;;;;;;3.70;2.30;;;20.50;51.50;;;;;;5003264;28;20327;-47
2021/10/03 02:32:29;;;;;;;3.85;2.17;;;20.50;51.50;;;;;;5009744;28;20242;-44
2021/10/03 02:35:00;;;;;;;3.92;2.08;;;20.50;51.50;;;;;;5007810;28;20228;-50
2021/10/03 02:37:32;;;;;;;2.10;1.65;;;20.50;51.40;;;;;;5009568;28;20235;-50
2021/10/03 02:40:02;;;;;;;3.25;2.20;;;20.50;51.40;;;;;;5004388;28;20267;-46
2021/10/03 02:42:33;;;;;;;5.40;3.33;;;20.50;51.30;;;;;;5010755;28;20240;-47
2021/10/03 02:45:03;;;;;;;5.97;3.50;;;20.60;51.30;;;;;;5011041;28;20283;-48
2021/10/03 02:47:34;;;;;;;4.63;2.92;;;20.60;51.30;;;;;;5010033;28;20238;-48
2021/10/03 02:50:04;;;;;;;6.43;3.30;;;20.60;51.30;;;;;;5013997;28;20339;-44
2021/10/03 02:52:36;;;;;;;5.20;3.20;;;20.60;51.30;;;;;;5010571;28;20288;-45
2021/10/03 02:55:07;;;;;;;3.45;2.47;;;20.60;51.30;;;;;;5011393;28;20228;-51
2021/10/03 02:57:38;;;;;;;4.68;3.58;;;20.60;51.30;;;;;;5009510;28;20200;-51
2021/10/03 03:00:09;;;;;;;4.95;3.40;;;20.60;51.30;;;;;;5012042;28;20252;-49
2021/10/03 03:02:40;;;;;;;4.88;3.70;;;20.70;51.30;;;;;;5013533;28;20207;-48
2021/10/03 03:05:12;;;;;;;4.93;3.58;;;20.70;51.30;;;;;;5014959;28;20232;-51
2021/10/03 03:07:45;;;;;;;5.55;3.85;;;20.70;51.30;;;;;;5012308;28;20232;-48
2021/10/03 03:10:15;;;;;;;7.68;3.70;;;20.70;51.20;;;;;;5013734;28;20760;-42
2021/10/03 03:12:45;;;;;;;5.93;3.70;;;20.70;51.20;;;;;;5020962;28;20240;-46
2021/10/03 03:15:16;;;;;;;6.07;3.58;;;20.80;51.20;;;;;;5012666;28;20251;-43
2021/10/03 03:17:46;;;;;;;5.55;3.45;;;20.70;51.10;;;;;;5008645;28;20232;-52
2021/10/03 03:20:17;;;;;;;7.00;3.95;;;20.80;51.10;;;;;;5010209;28;20267;-48
2021/10/03 03:22:49;;;;;;;6.85;3.97;;;20.80;51.10;;;;;;5013977;28;20240;-50
2021/10/03 03:25:19;;;;;;;5.43;3.67;;;20.80;51.10;;;;;;5014160;28;20228;-50
2021/10/03 03:27:50;;;;;;;4.93;3.75;;;20.80;51.10;;;;;;4994174;28;20229;-48
2021/10/03 03:30:20;;;;;;;5.75;3.75;;;20.80;51.10;;;;;;5012202;28;20747;-44
2021/10/03 03:32:51;;;;;;;6.07;4.00;;;20.80;51.20;;;;;;5013191;28;20810;-45
2021/10/03 03:35:21;;;;;;;6.47;3.83;;;20.80;51.20;;;;;;5011775;28;20691;-52
2021/10/03 03:37:53;;;;;;;6.00;3.83;;;20.80;51.20;;;;;;5009310;28;20477;-46
2021/10/03 03:40:24;;;;;;;5.65;3.92;;;20.80;51.20;;;;;;5014166;28;20256;-43
2021/10/03 03:42:55;;;;;;;4.90;4.05;;;20.80;51.30;;;;;;5012775;28;20236;-50
2021/10/03 03:45:25;;;;;;;6.60;4.10;;;20.80;51.30;;;;;;5013695;28;20201;-45
2021/10/03 03:47:56;;;;;;;7.85;4.05;;;20.80;51.30;;;;;;5013378;28;20228;-44
2021/10/03 03:50:26;;;;;;;8.25;4.00;;;20.80;51.30;;;;;;5013954;28;20229;-45
2021/10/03 03:52:59;;;;;;;6.15;3.83;;;20.80;51.20;;;;;;5013828;28;20201;-44
2021/10/03 03:55:29;;;;;;;5.10;3.53;;;20.90;51.20;;;;;;5011367;28;20221;-49
2021/10/03 03:58:00;;;;;;;4.72;3.53;;;20.80;51.20;;;;;;5013058;28;20287;-47
2021/10/03 04:00:30;;;;;;;6.68;3.55;;;20.90;51.20;;;;;;5009904;28;20304;-45
2021/10/03 04:03:01;;;;;;;5.55;3.53;;;20.90;51.10;;;;;;5013547;28;20204;-45
2021/10/03 04:05:31;;;;;;;5.60;3.67;;;20.80;51.00;;;;;;5008774;28;20283;-46
2021/10/03 04:08:03;;;;;;;6.45;3.72;;;20.80;51.10;;;;;;5012555;28;20232;-45
2021/10/03 04:10:34;;;;;;;6.25;3.50;;;20.80;51.20;;;;;;5009235;28;20264;-46
2021/10/03 04:13:04;;;;;;;4.70;3.50;;;20.80;51.10;;;;;;5012186;28;20239;-45
2021/10/03 04:15:35;;;;;;;5.55;3.30;;;20.80;51.10;;;;;;5012979;28;20645;-42
2021/10/03 04:18:05;;;;;;;7.32;3.67;;;20.80;51.20;;;;;;5017035;28;20290;-45
2021/10/03 04:20:36;;;;;;;5.75;3.47;;;20.80;51.20;;;;;;5013201;28;20263;-43
2021/10/03 04:23:08;;;;;;;6.75;3.90;;;20.80;51.20;;;;;;5008580;28;20288;-44
2021/10/03 04:25:38;;;;;;;5.00;3.85;;;20.80;51.30;;;;;;4995691;28;20228;-46
2021/10/03 04:28:10;;;;;;;5.20;3.67;;;20.80;51.20;;;;;;5009484;28;20228;-43
2021/10/03 04:30:40;;;;;;;4.70;3.17;;;20.80;51.10;;;;;;5012797;28;20232;-45
2021/10/03 04:33:11;;;;;;;4.03;3.33;;;20.80;51.10;;;;;;5009279;28;20243;-45
2021/10/03 04:35:41;;;;;;;4.78;3.58;;;20.80;51.10;;;;;;5011268;28;20316;-47
2021/10/03 04:38:13;;;;;;;3.83;3.10;;;20.80;51.10;;;;;;5007897;28;20288;-54
2021/10/03 04:40:44;;;;;;;5.43;3.33;;;20.80;51.10;;;;;;5012318;28;20251;-46
2021/10/03 04:43:14;;;;;;;4.50;3.05;;;20.70;51.10;;;;;;5012527;28;20263;-46
2021/10/03 04:45:46;;;;;;;6.43;4.88;;;20.80;51.20;;;;;;5005298;28;20248;-46
2021/10/03 04:48:16;;;;;;;5.60;3.70;;;20.70;51.20;;;;;;4992463;28;20446;-44
2021/10/03 04:50:47;;;;;;;5.47;4.07;;;20.70;51.10;;;;;;5003612;28;20324;-45
2021/10/03 04:53:19;;;;;;;7.80;4.47;;;20.70;51.10;;;;;;5012001;28;20200;-44
2021/10/03 04:55:49;;;;;;;7.07;5.03;;;20.70;51.10;;;;;;5010029;28;20279;-48
2021/10/03 04:58:20;;;;;;;8.57;5.53;;;20.70;51.20;;;;;;5013176;28;20239;-49
2021/10/03 05:00:51;;;;;;;8.73;5.30;;;20.70;51.20;;;;;;5013287;28;20280;-47
2021/10/03 05:03:22;;;;;;;9.98;6.13;;;20.70;51.20;;;;;;5012979;28;20201;-52
2021/10/03 05:05:52;;;;;;;10.35;7.60;;;20.60;51.30;;;;;;5012827;28;20236;-49
2021/10/03 05:08:25;;;;;;;8.55;5.20;;;20.60;51.30;;;;;;5012853;28;20197;-48
2021/10/03 05:10:55;;;;;;;8.73;4.95;;;20.60;51.30;;;;;;5012646;28;20255;-49
2021/10/03 05:13:26;;;;;;;10.45;5.85;;;20.70;51.40;;;;;;5012831;28;20248;-48
2021/10/03 05:15:56;;;;;;;9.10;5.30;;;20.60;51.30;;;;;;5012519;28;20285;-51
2021/10/03 05:18:26;;;;;;;6.65;4.97;;;20.60;51.30;;;;;;5012576;28;20281;-50
2021/10/03 05:20:57;;;;;;;7.68;5.07;;;20.60;51.50;;;;;;5013025;28;20280;-45
2021/10/03 05:23:29;;;;;;;8.43;5.30;;;20.60;51.30;;;;;;5012704;28;20292;-43
2021/10/03 05:26:00;;;;;;;7.60;4.90;;;20.60;51.30;;;;;;5012720;28;20280;-50
2021/10/03 05:28:30;;;;;;;7.32;4.32;;;20.60;51.30;;;;;;5012758;28;20207;-45
2021/10/03 05:31:00;;;;;;;8.50;5.15;;;20.50;51.30;;;;;;5012006;28;20312;-47
2021/10/03 05:33:32;;;;;;;6.63;5.00;;;20.50;51.30;;;;;;5012107;28;20396;-49
2021/10/03 05:36:03;;;;;;;7.72;4.97;;;20.50;51.30;;;;;;5012008;28;20197;-48
2021/10/03 05:38:35;;;;;;;6.70;4.32;;;20.50;51.30;;;;;;5011867;28;20224;-46
2021/10/03 05:41:05;;;;;;;7.03;4.47;;;20.50;51.30;;;;;;5012483;28;20721;-47
2021/10/03 05:43:37;;;;;;;6.75;4.38;;;20.50;51.30;;;;;;5012453;28;20243;-50
2021/10/03 05:46:08;;;;;;;9.38;4.95;;;20.50;51.30;;;;;;5012322;28;20201;-50
2021/10/03 05:48:38;;;;;;;6.03;4.20;;;20.50;51.30;;;;;;5012541;28;20243;-47
2021/10/03 05:51:09;;;;;;;6.85;4.53;;;20.50;51.30;;;;;;5012323;28;20311;-48
2021/10/03 05:53:41;;;;;;;6.20;4.32;;;20.40;51.30;;;;;;5011976;28;20235;-47
2021/10/03 05:56:12;;;;;;;7.22;4.80;;;20.40;51.30;;;;;;5012252;28;20201;-47
2021/10/03 05:58:42;;;;;;;8.98;4.80;;;20.40;51.20;;;;;;5012222;28;20239;-50
2021/10/03 06:01:13;;;;;;;7.97;4.60;;;20.40;51.30;;;;;;5012438;28;20236;-42
2021/10/03 06:03:43;;;;;;;8.80;5.35;;;20.40;51.30;;;;;;5012584;28;20228;-48
2021/10/03 06:06:13;;;;;;;8.35;5.28;;;20.40;51.30;;;;;;5011856;28;20232;-48
2021/10/03 06:08:46;;;;;;;7.30;4.88;;;20.40;51.30;;;;;;5011745;28;20256;-50
2021/10/03 06:11:16;;;;;;;7.03;5.05;;;20.40;51.40;;;;;;5011996;28;20361;-52
2021/10/03 06:13:47;;;;;;;8.05;5.00;;;20.30;51.30;;;;;;5011558;28;20668;-48
2021/10/03 06:16:17;;;;;;;6.78;4.60;;;20.30;51.30;;;;;;5010881;28;20228;-50
2021/10/03 06:18:47;;;;;;;6.35;4.57;;;20.30;51.40;;;;;;5011247;28;20307;-46
2021/10/03 06:21:18;;;;;;;6.28;4.55;;;20.30;51.40;;;;;;5011133;28;20288;-53
2021/10/03 06:23:50;;;;;;;6.53;4.57;;;20.30;51.40;;;;;;5011106;28;20193;-45
2021/10/03 06:26:21;;;;;;;6.50;4.68;;;20.30;51.50;;;;;;5011249;28;20239;-46
2021/10/03 06:28:51;;;;;;;8.25;4.88;;;20.20;51.40;;;;;;5011620;28;20248;-50
2021/10/03 06:31:21;;;;;;;6.20;4.70;;;20.20;51.40;;;;;;5011806;28;20256;-45
2021/10/03 06:33:52;;;;;;;6.90;4.50;;;20.20;51.40;;;;;;5011637;28;20279;-50
2021/10/03 06:36:22;;;;;;;8.13;5.20;;;20.20;51.40;;;;;;5012125;28;20284;-44
2021/10/03 06:38:55;;;;;;;7.97;4.75;;;20.20;51.40;;;;;;5011391;28;20650;-47
2021/10/03 06:41:25;;;;;;;5.60;4.28;;;20.20;51.40;;;;;;5011586;28;20608;-46
2021/10/03 06:43:55;;;;;;;6.07;4.03;;;20.20;51.40;;;;;;5011451;28;20532;-46
2021/10/03 06:46:26;;;;;;;5.97;4.55;;;20.20;51.40;;;;;;5011371;28;20283;-44
2021/10/03 06:48:56;;;;;;;7.47;4.47;;;20.20;51.40;;;;;;5011096;28;20252;-46
2021/10/03 06:51:27;;;;;;;5.38;4.28;;;20.20;51.50;;;;;;5011745;28;20311;-50
2021/10/03 06:53:59;;;;;;;5.82;4.38;;;20.10;51.40;;;;;;5011482;28;20235;-49
2021/10/03 06:56:29;;;;;;;5.10;4.10;;;20.10;51.40;;;;;;5010961;28;20278;-48
2021/10/03 06:59:00;;;;;;;7.13;4.70;;;20.10;51.40;;;;;;5011498;28;20252;-48
2021/10/03 07:01:30;;;;;;;6.38;4.10;;;20.10;51.50;;;;;;5010913;28;20236;-44
2021/10/03 07:04:01;;;;;;;7.38;4.53;;;20.00;51.50;;;;;;5010694;28;20271;-48
2021/10/03 07:06:31;;;;;;;5.60;4.13;;;20.00;51.50;;;;;;5011726;28;20240;-49
2021/10/03 07:09:03;;;;;;;6.05;3.92;;;20.10;51.50;;;;;;5011052;28;20240;-49
2021/10/03 07:11:34;;;;;;;6.53;4.00;;;20.00;51.50;;;;;;5010820;28;20316;-45
2021/10/03 07:14:04;;;;;;;5.95;4.03;;;20.00;51.40;;;;;;5011143;28;20299;-46
2021/10/03 07:16:35;;;;;;;5.30;4.07;;;20.00;51.50;;;;;;5011338;28;20228;-51
2021/10/03 07:19:05;;;;;;;6.88;5.28;;;20.00;51.50;;;;;;5011269;28;20299;-45
2021/10/03 07:21:36;;;;;;;10.20;6.70;;;20.00;51.50;;;;;;5011190;28;20236;-53
2021/10/03 07:24:08;;;;;;;10.57;7.13;;;19.90;51.60;;;;;;5010398;28;20283;-44
2021/10/03 07:26:39;;;;;;;10.27;7.05;;;20.00;51.80;;;;;;5010738;28;20232;-46
2021/10/03 07:29:09;;;;;;;10.90;7.30;;;20.00;51.80;;;;;;5011167;28;20248;-43
2021/10/03 07:31:40;;;;;;;10.48;6.50;;;20.00;51.80;;;;;;5010781;28;20311;-44
2021/10/03 07:34:10;;;;;;;10.07;6.82;;;19.90;51.70;;;;;;5013573;28;20196;-46
2021/10/03 07:36:40;;;;;;;11.05;6.25;;;19.90;51.70;;;;;;5014757;28;20691;-52
2021/10/03 07:39:13;;;;;;;11.30;6.68;;;19.90;51.70;;;;;;5014389;28;20256;-46
2021/10/03 07:41:43;;;;;;;12.10;7.50;;;19.90;51.80;;;;;;5013516;28;20276;-49
2021/10/03 07:44:14;;;;;;;12.85;7.47;;;19.90;51.80;;;;;;5010710;28;20189;-47
2021/10/03 07:46:44;;;;;;;11.15;7.13;;;19.90;51.80;;;;;;5013069;28;20224;-49
2021/10/03 07:49:15;;;;;;;11.88;7.03;;;19.90;51.90;;;;;;5009797;28;20318;-48
2021/10/03 07:51:45;;;;;;;12.85;7.43;;;19.80;51.90;;;;;;5012824;28;20312;-49
2021/10/03 07:54:17;;;;;;;11.02;7.13;;;19.80;51.80;;;;;;5010676;28;20282;-50
2021/10/03 07:56:48;;;;;;;10.40;6.85;;;19.80;51.90;;;;;;5012337;28;20277;-53
2021/10/03 07:59:18;;;;;;;10.63;7.03;;;19.80;51.80;;;;;;5010853;28;20274;-48
2021/10/03 08:02:15;;;;;;;12.23;7.38;;;19.80;51.80;;;;;;5013254;28;20696;-50
2021/10/03 08:04:46;;;;;;;10.90;6.70;;;19.80;51.90;;;;;;5011530;28;20221;-49
2021/10/03 08:07:16;;;;;;;9.23;6.15;;;19.70;51.70;;;;;;5010537;28;20698;-50
2021/10/03 08:09:48;;;;;;;11.05;6.80;;;19.70;51.70;;;;;;5012682;28;20295;-54
2021/10/03 08:12:19;;;;;;;14.55;6.60;;;19.70;51.80;;;;;;5010785;28;20259;-54
2021/10/03 08:14:49;;;;;;;12.52;5.88;;;19.70;51.80;;;;;;5012608;28;20304;-47
2021/10/03 08:17:20;;;;;;;10.32;6.10;;;19.70;51.80;;;;;;5011707;28;20243;-44
2021/10/03 08:19:50;;;;;;;10.50;6.78;;;19.70;51.70;;;;;;5012397;28;20327;-44
2021/10/03 08:22:21;;;;;;;9.68;6.30;;;19.70;51.80;;;;;;5012654;28;20607;-51
2021/10/03 08:24:53;;;;;;;10.55;6.75;;;19.60;51.70;;;;;;5013265;28;20231;-43
2021/10/03 08:27:23;;;;;;;8.45;5.97;;;19.60;51.70;;;;;;5013793;28;20665;-47
2021/10/03 08:29:54;;;;;;;10.82;6.82;;;19.60;51.80;;;;;;5013942;28;20249;-47
2021/10/03 08:32:24;;;;;;;8.32;6.25;;;19.60;51.70;;;;;;5013661;28;20627;-48
2021/10/03 08:34:55;;;;;;;11.65;6.72;;;19.60;51.70;;;;;;5013561;28;20734;-44
2021/10/03 08:37:25;;;;;;;9.70;6.55;;;19.50;51.70;;;;;;5013673;28;20236;-43
2021/10/03 08:39:57;;;;;;;8.77;5.82;;;19.60;51.70;;;;;;5012940;28;20641;-45
2021/10/03 08:42:28;;;;;;;9.40;6.45;;;19.50;51.70;;;;;;5012890;28;20634;-43
2021/10/03 08:44:58;;;;;;;9.50;6.32;;;19.50;51.70;;;;;;5012347;28;20721;-45
2021/10/03 08:47:29;;;;;;;8.63;5.72;;;19.50;51.70;;;;;;5013170;28;20611;-44
2021/10/03 08:50:00;;;;;;;9.55;6.35;;;19.50;51.70;;;;;;5011828;28;20693;-46
2021/10/03 08:52:30;;;;;;;10.13;6.28;;;19.50;51.70;;;;;;5011359;28;20307;-42
2021/10/03 08:55:02;;;;;;;10.38;5.85;;;19.50;51.70;;;;;;5010048;28;20228;-46
2021/10/03 08:57:33;;;;;;;9.88;5.90;;;19.40;51.70;;;;;;5012072;28;20224;-44
2021/10/03 09:00:11;;;;;;;9.07;6.07;;;19.40;51.70;;;;;;5012184;28;20252;-43
2021/10/03 09:03:00;;;;;;;9.05;6.15;;;19.40;51.80;;;;;;5010225;28;20224;-44
2021/10/03 09:05:31;;;;;;;11.23;6.35;;;19.40;51.80;;;;;;5011928;28;20215;-45
2021/10/03 09:08:07;;;;;;;10.25;6.30;;;19.40;51.80;;;;;;5009445;28;20281;-43
2021/10/03 09:10:58;;;;;;;9.75;6.07;;;19.40;51.80;;;;;;5009263;28;20684;-40
2021/10/03 09:13:43;;;;;;;8.70;6.47;;;19.30;51.80;;;;;;5010689;28;20259;-46
2021/10/03 09:16:15;;;;;;;10.85;6.65;;;19.30;51.80;;;;;;5011566;28;20256;-48
2021/10/03 09:18:46;;;;;;;9.48;6.38;;;19.30;51.80;;;;;;5010840;28;20266;-49
2021/10/03 09:21:34;;;;;;;8.45;6.63;;;19.30;51.80;;;;;;5008680;28;20228;-44
2021/10/03 09:24:04;;;;;;;9.18;6.30;;;19.30;51.80;;;;;;5009825;28;20197;-45
2021/10/03 09:26:37;;;;;;;9.25;6.93;;;19.30;51.80;;;;;;5011761;28;20231;-44
2021/10/03 09:29:22;;;;;;;10.02;6.40;;;19.30;51.80;;;;;;5011323;28;20252;-42
2021/10/03 09:32:10;;;;;;;8.60;6.30;;;19.20;51.70;;;;;;5010683;28;20220;-43
2021/10/03 09:34:40;;;;;;;8.13;6.32;;;19.20;51.70;;;;;;5009428;28;20220;-46
2021/10/03 09:37:22;;;;;;;8.13;6.18;;;19.20;51.70;;;;;;5011096;28;20232;-45
2021/10/03 09:39:54;;;;;;;10.40;6.97;;;19.20;51.70;;;;;;5010658;28;20565;-42
2021/10/03 09:42:26;;;;;;;8.32;5.90;;;19.20;51.70;;;;;;5011683;28;20197;-41
2021/10/03 09:45:10;;;;;;;9.63;5.95;;;19.20;51.70;;;;;;5011113;28;20239;-46
2021/10/03 09:47:40;;;;;;;9.35;6.07;;;19.20;51.80;;;;;;5009122;28;20750;-43
2021/10/03 09:50:12;;;;;;;9.40;6.80;;;19.10;51.80;;;;;;5011023;28;20251;-45
2021/10/03 09:52:43;;;;;;;10.48;6.18;;;19.10;51.80;;;;;;5009025;28;20614;-44
2021/10/03 09:55:17;;;;;;;9.07;6.10;;;19.10;51.80;;;;;;5010708;28;20231;-42
2021/10/03 09:57:49;;;;;;;9.48;6.72;;;19.10;51.90;;;;;;5010362;28;20199;-48
2021/10/03 10:00:20;;;;;;;9.35;6.07;;;19.10;51.90;;;;;;5011859;28;20299;-50
2021/10/03 10:02:51;;;;;;;9.63;6.13;;;19.10;51.90;;;;;;5011350;28;20243;-45
2021/10/03 10:05:24;;;;;;;9.18;6.25;;;19.00;51.80;;;;;;5011699;28;20385;-45
2021/10/03 10:07:56;;;;;;;9.05;5.80;;;19.00;51.80;;;;;;5011852;28;20234;-47
2021/10/03 10:10:27;;;;;;;9.75;5.82;;;19.00;51.90;;;;;;5012161;28;20310;-47
2021/10/03 10:13:00;;;;;;;8.30;5.47;;;19.00;51.80;;;;;;5011574;28;20217;-43
2021/10/03 10:15:31;;;;;;;8.05;5.70;;;19.00;51.80;;;;;;5011519;28;20224;-43
2021/10/03 10:18:01;;;;;;;7.82;5.57;;;19.00;51.80;;;;;;5008893;28;20657;-44
2021/10/03 10:20:41;;;;;;;8.40;5.90;;;19.00;51.80;;;;;;5011555;28;20682;-45
2021/10/03 10:23:13;;;;;;;11.57;6.22;;;19.00;51.80;;;;;;4992190;28;20288;-47
2021/10/03 10:26:00;;;;;;;7.60;5.35;;;19.00;51.80;;;;;;4991838;28;20283;-43
2021/10/03 10:28:39;;;;;;;10.68;6.28;;;18.90;51.80;;;;;;4992642;28;20244;-47
2021/10/03 10:31:13;;;;;;;9.02;5.95;;;18.90;51.80;;;;;;4995114;28;20266;-47
2021/10/03 10:34:12;;;;;;;8.15;5.20;;;18.90;51.80;;;;;;5011557;28;20235;-49
2021/10/03 10:36:56;;;;;;;7.78;5.50;;;18.90;51.90;;;;;;4930772;29;20291;-44
2021/10/03 10:39:30;;;;;;;7.53;5.28;;;18.80;51.80;;;;;;5002407;28;20303;-47
2021/10/03 10:42:02;;;;;;;7.15;5.45;;;18.90;51.90;;;;;;5011481;28;20207;-48
2021/10/03 10:44:41;;;;;;;7.07;4.97;;;18.80;51.90;;;;;;5011243;28;20292;-45
2021/10/03 10:47:14;;;;;;;8.25;5.78;;;18.80;51.90;;;;;;5011160;28;20656;-48
2021/10/03 10:49:46;;;;;;;6.82;5.28;;;18.80;51.90;;;;;;5010800;28;20695;-45
2021/10/03 10:52:36;;;;;;;7.32;5.80;;;18.80;51.90;;;;;;5010949;28;20579;-45
2021/10/03 10:55:26;;;;;;;8.85;5.50;;;18.80;52.00;;;;;;5008909;28;20724;-48
2021/10/03 10:58:23;;;;;;;7.72;5.45;;;18.80;51.90;;;;;;5009500;28;20199;-49
2021/10/03 11:01:06;;;;;;;7.18;5.20;;;18.80;51.90;;;;;;5009621;28;20236;-48
2021/10/03 11:03:59;;;;;;;7.43;5.22;;;18.80;51.90;;;;;;5010304;28;20220;-45
2021/10/03 11:06:56;;;;;;;7.03;5.10;;;18.80;51.90;;;;;;5008099;28;20191;-47
2021/10/03 11:09:27;;;;;;;7.40;4.93;;;18.70;51.80;;;;;;5012900;28;20251;-45
2021/10/03 11:12:05;;;;;;;7.30;4.82;;;18.80;51.90;;;;;;5014408;28;20779;-47
2021/10/03 11:14:35;;;;;;;6.97;4.97;;;18.70;52.50;;;;;;5014445;28;20661;-47
2021/10/03 11:17:09;;;;;;;6.97;4.95;;;18.70;52.00;;;;;;5014447;28;20676;-44
2021/10/03 11:19:54;;;;;;;7.13;4.88;;;18.70;52.00;;;;;;5012043;28;20294;-46
2021/10/03 11:22:27;;;;;;;6.75;4.53;;;18.70;52.00;;;;;;5013259;28;20185;-49
2021/10/03 11:24:57;;;;;;;7.80;5.15;;;18.70;52.00;;;;;;5012132;28;20193;-52
2021/10/03 11:27:30;;;;;;;7.88;4.68;;;18.70;52.60;;;;;;5013839;28;20271;-51
2021/10/03 11:30:01;;;;;;;7.28;4.90;;;18.60;52.00;;;;;;5014762;28;20242;-48
2021/10/03 11:32:34;;;;;;;6.93;5.18;;;18.70;52.00;;;;;;5013497;28;20651;-43
2021/10/03 11:35:07;;;;;;;7.28;5.13;;;18.70;52.00;;;;;;5011237;28;20244;-40
2021/10/03 11:37:39;;;;;;;7.32;5.38;;;18.60;52.00;;;;;;5009535;28;20624;-44
2021/10/03 11:40:11;;;;;;;7.95;5.10;;;18.60;52.00;;;;;;5012154;28;20311;-48
2021/10/03 11:42:42;;;;;;;7.47;5.07;;;18.60;52.00;;;;;;5013930;28;20711;-48
2021/10/03 11:45:14;;;;;;;6.75;4.65;;;18.60;52.00;;;;;;5013921;28;20220;-45
2021/10/03 11:47:47;;;;;;;8.57;5.15;;;18.60;51.90;;;;;;5013308;28;20220;-42
2021/10/03 11:50:21;;;;;;;6.88;4.78;;;18.60;51.90;;;;;;5013604;28;20253;-47
2021/10/03 11:52:51;;;;;;;6.90;5.00;;;18.60;52.00;;;;;;5011568;28;20221;-49
2021/10/03 11:55:23;;;;;;;5.75;4.82;;;18.60;52.00;;;;;;5013548;28;20224;-46
2021/10/03 11:57:53;;;;;;;7.47;5.13;;;18.60;52.00;;;;;;5011782;28;20197;-44
2021/10/03 12:00:25;;;;;;;7.40;4.97;;;18.60;52.00;;;;;;5013681;28;20255;-45
2021/10/03 12:02:59;;;;;;;5.60;4.57;;;18.60;52.00;;;;;;5011508;28;20193;-45
2021/10/03 12:05:31;;;;;;;6.13;4.38;;;18.50;52.60;;;;;;5013858;28;20233;-45
2021/10/03 12:08:08;;;;;;;6.75;4.60;;;18.50;52.00;;;;;;5013882;28;20284;-43
2021/10/03 12:10:40;;;;;;;5.93;4.32;;;18.50;52.60;;;;;;5011229;28;20250;-44
2021/10/03 12:13:15;;;;;;;6.60;4.28;;;18.50;52.00;;;;;;5011403;28;20752;-44
2021/10/03 12:15:49;;;;;;;5.78;4.40;;;18.50;52.00;;;;;;5013103;28;20566;-44
2021/10/03 12:18:47;;;;;;;7.28;4.97;;;18.50;52.00;;;;;;5012734;28;20660;-46
2021/10/03 12:21:19;;;;;;;5.13;3.67;;;18.50;52.00;;;;;;5010263;28;20197;-50
2021/10/03 12:23:54;;;;;;;6.43;4.57;;;18.50;51.90;;;;;;5013072;28;20236;-44
2021/10/03 12:26:35;;;;;;;8.13;4.70;;;18.50;52.00;;;;;;5013696;28;20236;-46
2021/10/03 12:29:18;;;;;;;5.28;3.83;;;18.50;52.00;;;;;;5010317;28;20244;-47
2021/10/03 12:31:55;;;;;;;7.43;3.90;;;18.50;52.00;;;;;;5010348;28;20696;-50
2021/10/03 12:34:38;;;;;;;6.13;4.35;;;18.50;52.00;;;;;;5010381;28;20672;-50
2021/10/03 12:37:09;;;;;;;6.85;4.28;;;18.50;52.10;;;;;;5010084;28;20280;-46
2021/10/03 12:39:40;;;;;;;6.57;4.13;;;18.40;52.60;;;;;;5012147;28;20731;-48
2021/10/03 12:42:12;;;;;;;5.95;4.05;;;18.40;52.10;;;;;;5012290;28;20280;-47
2021/10/03 12:44:43;;;;;;;6.10;4.22;;;18.40;52.10;;;;;;5011869;28;20275;-49
2021/10/03 12:47:13;;;;;;;6.10;4.50;;;18.40;52.10;;;;;;5011952;28;20610;-44
2021/10/03 12:49:45;;;;;;;5.72;3.72;;;18.40;52.10;;;;;;5009257;28;20742;-48
2021/10/03 12:52:16;;;;;;;5.80;3.90;;;18.40;52.20;;;;;;5012083;28;20263;-45
2021/10/03 12:54:47;;;;;;;5.70;3.80;;;18.40;52.10;;;;;;5009829;28;20276;-46
2021/10/03 12:57:17;;;;;;;7.68;4.03;;;18.40;52.20;;;;;;5011116;28;20225;-47
2021/10/03 12:59:48;;;;;;;6.57;4.30;;;18.40;52.20;;;;;;5009481;28;20205;-47
2021/10/03 13:02:18;;;;;;;5.60;3.97;;;18.40;52.20;;;;;;5011417;28;20232;-48
2021/10/03 13:04:50;;;;;;;5.18;4.13;;;18.40;52.10;;;;;;5012429;28;20280;-48
2021/10/03 13:07:21;;;;;;;4.55;3.63;;;18.40;52.10;;;;;;5013227;28;20235;-46
2021/10/03 13:09:51;;;;;;;5.68;4.25;;;18.40;52.10;;;;;;5012990;28;20244;-43
2021/10/03 13:12:22;;;;;;;4.78;3.63;;;18.40;52.10;;;;;;5012614;28;20689;-45